Terminal Aerodrome Forecast
Issued by NWS

Home | Current Version | Previous Version | Text Only | Print | Product List | Glossary On
Versions: 1 2 3 4 5 6 7 8 9 10 11 12 13 14
856
FTUS44 KTSA 130520
TAFXNA
TAF
KXNA 130520Z 1306/1406 03010KT P6SM BKN100
     FM131300 05008KT P6SM SCT250
     FM131800 12008KT P6SM BKN250
     FM140200 13009KT P6SM SCT030 BKN250
     FM140500 15011KT P6SM BKN025 OVC100=

USA.gov is the U.S. government's official web portal to all federal, state and local government web resources and services.